sensor_id;sensor_type;location;lat;lon;timestamp;P1;durP1;ratioP1;P2;durP2;ratioP2
58071;SDS011;60383;46.626;18.866;2024-01-10T00:01:41;18.88;;;11.43;;
58071;SDS011;60383;46.626;18.866;2024-01-10T00:04:06;22.42;;;11.63;;
58071;SDS011;60383;46.626;18.866;2024-01-10T00:06:32;24.77;;;12.35;;
58071;SDS011;60383;46.626;18.866;2024-01-10T00:08:57;21.17;;;11.65;;
58071;SDS011;60383;46.626;18.866;2024-01-10T00:11:23;24.77;;;11.35;;
58071;SDS011;60383;46.626;18.866;2024-01-10T00:13:48;22.50;;;11.77;;
58071;SDS011;60383;46.626;18.866;2024-01-10T00:16:14;22.30;;;10.98;;
58071;SDS011;60383;46.626;18.866;2024-01-10T00:18:40;22.20;;;12.45;;
58071;SDS011;60383;46.626;18.866;2024-01-10T00:21:05;19.08;;;11.60;;
58071;SDS011;60383;46.626;18.866;2024-01-10T00:23:32;22.35;;;12.10;;
58071;SDS011;60383;46.626;18.866;2024-01-10T00:25:57;22.73;;;11.20;;
58071;SDS011;60383;46.626;18.866;2024-01-10T00:28:23;20.35;;;11.55;;
58071;SDS011;60383;46.626;18.866;2024-01-10T00:30:48;21.60;;;12.73;;
58071;SDS011;60383;46.626;18.866;2024-01-10T00:33:14;19.40;;;11.48;;
58071;SDS011;60383;46.626;18.866;2024-01-10T00:35:40;20.05;;;12.00;;
58071;SDS011;60383;46.626;18.866;2024-01-10T00:38:05;22.38;;;11.35;;
58071;SDS011;60383;46.626;18.866;2024-01-10T00:40:31;21.42;;;11.45;;
58071;SDS011;60383;46.626;18.866;2024-01-10T00:42:56;18.88;;;11.77;;
58071;SDS011;60383;46.626;18.866;2024-01-10T00:45:22;23.67;;;11.95;;
58071;SDS011;60383;46.626;18.866;2024-01-10T00:47:50;20.25;;;11.93;;
58071;SDS011;60383;46.626;18.866;2024-01-10T00:50:15;22.38;;;11.85;;
58071;SDS011;60383;46.626;18.866;2024-01-10T00:52:44;19.25;;;11.23;;
58071;SDS011;60383;46.626;18.866;2024-01-10T00:55:10;19.92;;;10.80;;
58071;SDS011;60383;46.626;18.866;2024-01-10T00:57:36;19.35;;;10.50;;
58071;SDS011;60383;46.626;18.866;2024-01-10T01:00:04;23.42;;;11.65;;
58071;SDS011;60383;46.626;18.866;2024-01-10T01:02:34;21.25;;;11.18;;
58071;SDS011;60383;46.626;18.866;2024-01-10T01:05:00;19.83;;;10.95;;
58071;SDS011;60383;46.626;18.866;2024-01-10T01:07:26;18.65;;;10.82;;
58071;SDS011;60383;46.626;18.866;2024-01-10T01:09:51;18.73;;;10.45;;
58071;SDS011;60383;46.626;18.866;2024-01-10T01:12:17;16.10;;;9.48;;
58071;SDS011;60383;46.626;18.866;2024-01-10T01:14:42;20.60;;;10.95;;
58071;SDS011;60383;46.626;18.866;2024-01-10T01:17:08;16.48;;;9.85;;
58071;SDS011;60383;46.626;18.866;2024-01-10T01:19:33;17.52;;;10.52;;
58071;SDS011;60383;46.626;18.866;2024-01-10T01:21:59;17.88;;;11.15;;
58071;SDS011;60383;46.626;18.866;2024-01-10T01:24:24;19.48;;;11.13;;
58071;SDS011;60383;46.626;18.866;2024-01-10T01:26:50;19.42;;;10.88;;
58071;SDS011;60383;46.626;18.866;2024-01-10T01:29:15;18.38;;;9.73;;
58071;SDS011;60383;46.626;18.866;2024-01-10T01:31:41;19.73;;;10.23;;
58071;SDS011;60383;46.626;18.866;2024-01-10T01:34:06;18.70;;;10.05;;
58071;SDS011;60383;46.626;18.866;2024-01-10T01:36:32;21.45;;;10.85;;
58071;SDS011;60383;46.626;18.866;2024-01-10T01:38:57;19.13;;;10.65;;
58071;SDS011;60383;46.626;18.866;2024-01-10T01:41:23;18.17;;;10.38;;
58071;SDS011;60383;46.626;18.866;2024-01-10T01:43:48;17.73;;;10.15;;
58071;SDS011;60383;46.626;18.866;2024-01-10T01:46:14;18.55;;;10.40;;
58071;SDS011;60383;46.626;18.866;2024-01-10T01:48:39;19.00;;;10.48;;
58071;SDS011;60383;46.626;18.866;2024-01-10T01:51:06;18.70;;;10.85;;
58071;SDS011;60383;46.626;18.866;2024-01-10T01:53:36;19.58;;;10.65;;
58071;SDS011;60383;46.626;18.866;2024-01-10T01:56:08;20.08;;;10.85;;
58071;SDS011;60383;46.626;18.866;2024-01-10T01:58:35;18.45;;;10.55;;
58071;SDS011;60383;46.626;18.866;2024-01-10T02:01:03;16.08;;;9.77;;
58071;SDS011;60383;46.626;18.866;2024-01-10T02:03:30;17.95;;;10.15;;
58071;SDS011;60383;46.626;18.866;2024-01-10T02:05:57;18.75;;;10.18;;
58071;SDS011;60383;46.626;18.866;2024-01-10T02:08:22;17.30;;;9.93;;
58071;SDS011;60383;46.626;18.866;2024-01-10T02:10:48;18.92;;;10.63;;
58071;SDS011;60383;46.626;18.866;2024-01-10T02:13:14;18.88;;;9.55;;
58071;SDS011;60383;46.626;18.866;2024-01-10T02:15:40;16.02;;;9.85;;
58071;SDS011;60383;46.626;18.866;2024-01-10T02:18:06;21.10;;;10.65;;
58071;SDS011;60383;46.626;18.866;2024-01-10T02:20:31;21.17;;;10.63;;
58071;SDS011;60383;46.626;18.866;2024-01-10T02:22:57;17.38;;;9.63;;
58071;SDS011;60383;46.626;18.866;2024-01-10T02:25:22;18.83;;;11.05;;
58071;SDS011;60383;46.626;18.866;2024-01-10T02:27:48;18.45;;;11.18;;
58071;SDS011;60383;46.626;18.866;2024-01-10T02:30:13;21.65;;;11.65;;
58071;SDS011;60383;46.626;18.866;2024-01-10T02:32:39;19.52;;;11.85;;
58071;SDS011;60383;46.626;18.866;2024-01-10T02:35:05;19.85;;;10.85;;
58071;SDS011;60383;46.626;18.866;2024-01-10T02:37:31;22.08;;;10.70;;
58071;SDS011;60383;46.626;18.866;2024-01-10T02:39:56;17.23;;;10.77;;
58071;SDS011;60383;46.626;18.866;2024-01-10T02:42:23;18.50;;;10.77;;
58071;SDS011;60383;46.626;18.866;2024-01-10T02:44:49;18.00;;;10.48;;
58071;SDS011;60383;46.626;18.866;2024-01-10T02:47:14;18.05;;;10.93;;
58071;SDS011;60383;46.626;18.866;2024-01-10T02:49:40;24.95;;;10.93;;
58071;SDS011;60383;46.626;18.866;2024-01-10T02:52:05;17.17;;;10.63;;
58071;SDS011;60383;46.626;18.866;2024-01-10T02:54:31;16.95;;;10.48;;
58071;SDS011;60383;46.626;18.866;2024-01-10T02:56:56;19.83;;;10.75;;
58071;SDS011;60383;46.626;18.866;2024-01-10T02:59:22;18.50;;;10.30;;
58071;SDS011;60383;46.626;18.866;2024-01-10T03:01:47;16.13;;;9.68;;
58071;SDS011;60383;46.626;18.866;2024-01-10T03:04:13;20.65;;;10.45;;
58071;SDS011;60383;46.626;18.866;2024-01-10T03:06:38;20.13;;;10.63;;
58071;SDS011;60383;46.626;18.866;2024-01-10T03:09:04;19.73;;;11.30;;
58071;SDS011;60383;46.626;18.866;2024-01-10T03:11:29;18.85;;;10.88;;
58071;SDS011;60383;46.626;18.866;2024-01-10T03:14:03;16.83;;;10.88;;
58071;SDS011;60383;46.626;18.866;2024-01-10T03:16:32;19.30;;;10.45;;
58071;SDS011;60383;46.626;18.866;2024-01-10T03:18:57;19.05;;;10.23;;
58071;SDS011;60383;46.626;18.866;2024-01-10T03:21:23;17.05;;;10.57;;
58071;SDS011;60383;46.626;18.866;2024-01-10T03:23:54;20.77;;;11.45;;
58071;SDS011;60383;46.626;18.866;2024-01-10T03:26:21;16.65;;;10.27;;
58071;SDS011;60383;46.626;18.866;2024-01-10T03:28:47;19.08;;;10.35;;
58071;SDS011;60383;46.626;18.866;2024-01-10T03:31:12;17.42;;;9.82;;
58071;SDS011;60383;46.626;18.866;2024-01-10T03:33:38;18.17;;;10.40;;
58071;SDS011;60383;46.626;18.866;2024-01-10T03:36:04;19.80;;;10.10;;
58071;SDS011;60383;46.626;18.866;2024-01-10T03:38:31;20.50;;;10.95;;
58071;SDS011;60383;46.626;18.866;2024-01-10T03:40:56;19.42;;;11.48;;
58071;SDS011;60383;46.626;18.866;2024-01-10T03:43:22;23.58;;;11.18;;
58071;SDS011;60383;46.626;18.866;2024-01-10T03:45:47;18.50;;;10.80;;
58071;SDS011;60383;46.626;18.866;2024-01-10T03:48:13;25.98;;;11.43;;
58071;SDS011;60383;46.626;18.866;2024-01-10T03:50:38;21.55;;;11.43;;
58071;SDS011;60383;46.626;18.866;2024-01-10T03:53:04;17.20;;;10.65;;
58071;SDS011;60383;46.626;18.866;2024-01-10T03:55:29;19.52;;;11.05;;
58071;SDS011;60383;46.626;18.866;2024-01-10T03:57:55;16.15;;;10.25;;
58071;SDS011;60383;46.626;18.866;2024-01-10T04:00:21;18.88;;;11.70;;
58071;SDS011;60383;46.626;18.866;2024-01-10T04:02:47;17.95;;;11.63;;
58071;SDS011;60383;46.626;18.866;2024-01-10T04:05:12;19.80;;;11.27;;
58071;SDS011;60383;46.626;18.866;2024-01-10T04:07:41;19.23;;;11.48;;
58071;SDS011;60383;46.626;18.866;2024-01-10T04:10:08;23.43;;;10.70;;
58071;SDS011;60383;46.626;18.866;2024-01-10T04:12:38;21.00;;;11.70;;
58071;SDS011;60383;46.626;18.866;2024-01-10T04:15:04;22.63;;;11.05;;
58071;SDS011;60383;46.626;18.866;2024-01-10T04:17:30;18.58;;;11.43;;
58071;SDS011;60383;46.626;18.866;2024-01-10T04:19:55;18.38;;;10.82;;
58071;SDS011;60383;46.626;18.866;2024-01-10T04:22:23;18.80;;;10.70;;
58071;SDS011;60383;46.626;18.866;2024-01-10T04:24:49;20.27;;;11.02;;
58071;SDS011;60383;46.626;18.866;2024-01-10T04:27:15;22.52;;;11.85;;
58071;SDS011;60383;46.626;18.866;2024-01-10T04:29:40;22.70;;;12.73;;
58071;SDS011;60383;46.626;18.866;2024-01-10T04:32:06;20.92;;;12.43;;
58071;SDS011;60383;46.626;18.866;2024-01-10T04:34:31;17.90;;;11.90;;
58071;SDS011;60383;46.626;18.866;2024-01-10T04:36:57;23.63;;;12.95;;
58071;SDS011;60383;46.626;18.866;2024-01-10T04:39:22;26.80;;;13.85;;
58071;SDS011;60383;46.626;18.866;2024-01-10T04:41:48;25.63;;;12.60;;
58071;SDS011;60383;46.626;18.866;2024-01-10T04:44:14;22.13;;;11.85;;
58071;SDS011;60383;46.626;18.866;2024-01-10T04:46:39;20.77;;;11.45;;
58071;SDS011;60383;46.626;18.866;2024-01-10T04:49:06;17.05;;;10.68;;
58071;SDS011;60383;46.626;18.866;2024-01-10T04:51:32;20.50;;;11.35;;
58071;SDS011;60383;46.626;18.866;2024-01-10T04:53:57;19.75;;;11.65;;
58071;SDS011;60383;46.626;18.866;2024-01-10T04:56:23;20.48;;;10.88;;
58071;SDS011;60383;46.626;18.866;2024-01-10T04:58:48;23.65;;;12.48;;
58071;SDS011;60383;46.626;18.866;2024-01-10T05:01:14;32.63;;;13.10;;
58071;SDS011;60383;46.626;18.866;2024-01-10T05:03:40;31.73;;;14.07;;
58071;SDS011;60383;46.626;18.866;2024-01-10T05:06:05;27.55;;;12.60;;
58071;SDS011;60383;46.626;18.866;2024-01-10T05:08:31;27.05;;;13.63;;
58071;SDS011;60383;46.626;18.866;2024-01-10T05:10:56;21.42;;;12.50;;
58071;SDS011;60383;46.626;18.866;2024-01-10T05:13:22;19.88;;;12.30;;
58071;SDS011;60383;46.626;18.866;2024-01-10T05:15:47;23.58;;;12.82;;
58071;SDS011;60383;46.626;18.866;2024-01-10T05:18:13;20.42;;;12.15;;
58071;SDS011;60383;46.626;18.866;2024-01-10T05:20:38;25.25;;;12.50;;
58071;SDS011;60383;46.626;18.866;2024-01-10T05:23:04;21.85;;;12.32;;
58071;SDS011;60383;46.626;18.866;2024-01-10T05:25:30;23.77;;;14.00;;
58071;SDS011;60383;46.626;18.866;2024-01-10T05:27:55;21.33;;;12.13;;
58071;SDS011;60383;46.626;18.866;2024-01-10T05:30:21;22.10;;;13.90;;
58071;SDS011;60383;46.626;18.866;2024-01-10T05:32:46;26.67;;;14.20;;
58071;SDS011;60383;46.626;18.866;2024-01-10T05:35:12;22.67;;;14.00;;
58071;SDS011;60383;46.626;18.866;2024-01-10T05:37:37;23.13;;;12.60;;
58071;SDS011;60383;46.626;18.866;2024-01-10T05:40:03;24.98;;;13.32;;
58071;SDS011;60383;46.626;18.866;2024-01-10T05:42:32;21.75;;;13.20;;
58071;SDS011;60383;46.626;18.866;2024-01-10T05:44:58;22.27;;;12.50;;
58071;SDS011;60383;46.626;18.866;2024-01-10T05:47:24;22.80;;;13.80;;
58071;SDS011;60383;46.626;18.866;2024-01-10T05:49:51;22.58;;;13.85;;
58071;SDS011;60383;46.626;18.866;2024-01-10T05:52:18;23.83;;;13.38;;
58071;SDS011;60383;46.626;18.866;2024-01-10T05:54:43;21.30;;;13.50;;
58071;SDS011;60383;46.626;18.866;2024-01-10T05:57:09;21.80;;;13.55;;
58071;SDS011;60383;46.626;18.866;2024-01-10T05:59:35;22.73;;;13.00;;
58071;SDS011;60383;46.626;18.866;2024-01-10T06:02:00;24.10;;;13.55;;
58071;SDS011;60383;46.626;18.866;2024-01-10T06:04:27;23.67;;;13.82;;
58071;SDS011;60383;46.626;18.866;2024-01-10T06:06:55;21.95;;;13.63;;
58071;SDS011;60383;46.626;18.866;2024-01-10T06:09:22;24.58;;;13.30;;
58071;SDS011;60383;46.626;18.866;2024-01-10T06:11:48;25.40;;;13.70;;
58071;SDS011;60383;46.626;18.866;2024-01-10T06:14:13;22.65;;;13.40;;
58071;SDS011;60383;46.626;18.866;2024-01-10T06:16:39;29.45;;;15.52;;
58071;SDS011;60383;46.626;18.866;2024-01-10T06:19:05;29.35;;;16.92;;
58071;SDS011;60383;46.626;18.866;2024-01-10T06:21:31;35.67;;;19.25;;
58071;SDS011;60383;46.626;18.866;2024-01-10T06:23:57;34.70;;;18.23;;
58071;SDS011;60383;46.626;18.866;2024-01-10T06:26:22;36.15;;;18.00;;
58071;SDS011;60383;46.626;18.866;2024-01-10T06:28:48;27.98;;;16.58;;
58071;SDS011;60383;46.626;18.866;2024-01-10T06:31:13;26.35;;;14.57;;
58071;SDS011;60383;46.626;18.866;2024-01-10T06:33:39;25.67;;;14.48;;
58071;SDS011;60383;46.626;18.866;2024-01-10T06:36:04;28.88;;;14.95;;
58071;SDS011;60383;46.626;18.866;2024-01-10T06:38:30;25.60;;;15.48;;
58071;SDS011;60383;46.626;18.866;2024-01-10T06:40:56;27.88;;;14.77;;
58071;SDS011;60383;46.626;18.866;2024-01-10T06:43:21;26.67;;;17.10;;
58071;SDS011;60383;46.626;18.866;2024-01-10T06:45:47;29.83;;;17.27;;
58071;SDS011;60383;46.626;18.866;2024-01-10T06:48:13;27.55;;;16.70;;
58071;SDS011;60383;46.626;18.866;2024-01-10T06:50:39;25.30;;;16.88;;
58071;SDS011;60383;46.626;18.866;2024-01-10T06:53:05;30.35;;;18.00;;
58071;SDS011;60383;46.626;18.866;2024-01-10T06:55:31;28.95;;;17.20;;
58071;SDS011;60383;46.626;18.866;2024-01-10T06:57:56;31.17;;;17.67;;
58071;SDS011;60383;46.626;18.866;2024-01-10T07:00:21;28.23;;;17.40;;
58071;SDS011;60383;46.626;18.866;2024-01-10T07:02:49;29.90;;;17.20;;
58071;SDS011;60383;46.626;18.866;2024-01-10T07:05:14;29.35;;;17.25;;
58071;SDS011;60383;46.626;18.866;2024-01-10T07:07:40;32.80;;;18.27;;
58071;SDS011;60383;46.626;18.866;2024-01-10T07:10:07;32.60;;;18.73;;
58071;SDS011;60383;46.626;18.866;2024-01-10T07:12:33;34.75;;;19.85;;
58071;SDS011;60383;46.626;18.866;2024-01-10T07:14:59;32.95;;;19.10;;
58071;SDS011;60383;46.626;18.866;2024-01-10T07:17:25;35.75;;;20.45;;
58071;SDS011;60383;46.626;18.866;2024-01-10T07:19:50;39.80;;;23.02;;
58071;SDS011;60383;46.626;18.866;2024-01-10T07:22:16;40.35;;;23.00;;
58071;SDS011;60383;46.626;18.866;2024-01-10T07:24:43;41.13;;;23.95;;
58071;SDS011;60383;46.626;18.866;2024-01-10T07:27:09;48.33;;;27.58;;
58071;SDS011;60383;46.626;18.866;2024-01-10T07:29:35;61.35;;;32.25;;
58071;SDS011;60383;46.626;18.866;2024-01-10T07:32:00;91.32;;;42.38;;
58071;SDS011;60383;46.626;18.866;2024-01-10T07:34:26;87.10;;;44.33;;
58071;SDS011;60383;46.626;18.866;2024-01-10T07:36:51;97.65;;;45.95;;
58071;SDS011;60383;46.626;18.866;2024-01-10T07:39:19;72.80;;;37.17;;
58071;SDS011;60383;46.626;18.866;2024-01-10T07:41:45;56.03;;;32.90;;
58071;SDS011;60383;46.626;18.866;2024-01-10T07:44:10;51.20;;;30.88;;
58071;SDS011;60383;46.626;18.866;2024-01-10T07:46:36;49.97;;;29.83;;
58071;SDS011;60383;46.626;18.866;2024-01-10T07:49:04;49.78;;;29.80;;
58071;SDS011;60383;46.626;18.866;2024-01-10T07:51:30;50.22;;;29.42;;
58071;SDS011;60383;46.626;18.866;2024-01-10T07:53:57;44.20;;;27.35;;
58071;SDS011;60383;46.626;18.866;2024-01-10T07:56:24;47.75;;;29.48;;
58071;SDS011;60383;46.626;18.866;2024-01-10T07:58:49;43.15;;;28.75;;
58071;SDS011;60383;46.626;18.866;2024-01-10T08:01:16;41.78;;;27.42;;
58071;SDS011;60383;46.626;18.866;2024-01-10T08:03:42;40.05;;;26.40;;
58071;SDS011;60383;46.626;18.866;2024-01-10T08:06:07;32.60;;;20.70;;
58071;SDS011;60383;46.626;18.866;2024-01-10T08:08:33;33.40;;;21.30;;
58071;SDS011;60383;46.626;18.866;2024-01-10T08:10:58;23.92;;;16.80;;
58071;SDS011;60383;46.626;18.866;2024-01-10T08:13:24;25.02;;;17.05;;
58071;SDS011;60383;46.626;18.866;2024-01-10T08:15:50;24.33;;;15.77;;
58071;SDS011;60383;46.626;18.866;2024-01-10T08:18:16;21.13;;;13.93;;
58071;SDS011;60383;46.626;18.866;2024-01-10T08:20:41;20.77;;;14.52;;
58071;SDS011;60383;46.626;18.866;2024-01-10T08:23:07;18.13;;;13.32;;
58071;SDS011;60383;46.626;18.866;2024-01-10T08:25:33;19.58;;;13.15;;
58071;SDS011;60383;46.626;18.866;2024-01-10T08:27:58;20.60;;;13.73;;
58071;SDS011;60383;46.626;18.866;2024-01-10T08:30:24;19.75;;;12.90;;
58071;SDS011;60383;46.626;18.866;2024-01-10T08:32:49;17.70;;;12.30;;
58071;SDS011;60383;46.626;18.866;2024-01-10T08:35:15;19.05;;;13.30;;
58071;SDS011;60383;46.626;18.866;2024-01-10T08:37:41;19.98;;;12.98;;
58071;SDS011;60383;46.626;18.866;2024-01-10T08:40:10;18.35;;;12.48;;
58071;SDS011;60383;46.626;18.866;2024-01-10T08:42:40;21.00;;;13.57;;
58071;SDS011;60383;46.626;18.866;2024-01-10T08:45:07;18.20;;;13.00;;
58071;SDS011;60383;46.626;18.866;2024-01-10T08:47:34;20.70;;;13.10;;
58071;SDS011;60383;46.626;18.866;2024-01-10T08:50:03;25.20;;;13.07;;
58071;SDS011;60383;46.626;18.866;2024-01-10T08:52:34;20.02;;;13.27;;
58071;SDS011;60383;46.626;18.866;2024-01-10T08:55:03;19.75;;;12.65;;
58071;SDS011;60383;46.626;18.866;2024-01-10T08:57:29;18.77;;;12.63;;
58071;SDS011;60383;46.626;18.866;2024-01-10T08:59:55;18.73;;;13.15;;
58071;SDS011;60383;46.626;18.866;2024-01-10T09:02:20;21.52;;;13.75;;
58071;SDS011;60383;46.626;18.866;2024-01-10T09:04:48;19.45;;;13.10;;
58071;SDS011;60383;46.626;18.866;2024-01-10T09:07:13;18.70;;;12.98;;
58071;SDS011;60383;46.626;18.866;2024-01-10T09:09:39;19.52;;;13.63;;
58071;SDS011;60383;46.626;18.866;2024-01-10T09:12:04;25.13;;;14.13;;
58071;SDS011;60383;46.626;18.866;2024-01-10T09:14:30;19.35;;;13.63;;
58071;SDS011;60383;46.626;18.866;2024-01-10T09:16:56;25.08;;;13.35;;
58071;SDS011;60383;46.626;18.866;2024-01-10T09:19:21;21.10;;;13.50;;
58071;SDS011;60383;46.626;18.866;2024-01-10T09:21:46;20.38;;;13.35;;
58071;SDS011;60383;46.626;18.866;2024-01-10T09:24:13;20.60;;;13.25;;
58071;SDS011;60383;46.626;18.866;2024-01-10T09:26:39;21.63;;;14.13;;
58071;SDS011;60383;46.626;18.866;2024-01-10T09:29:06;19.67;;;13.32;;
58071;SDS011;60383;46.626;18.866;2024-01-10T09:31:31;17.83;;;12.82;;
58071;SDS011;60383;46.626;18.866;2024-01-10T09:33:57;22.67;;;12.98;;
58071;SDS011;60383;46.626;18.866;2024-01-10T09:36:22;19.95;;;12.85;;
58071;SDS011;60383;46.626;18.866;2024-01-10T09:38:48;20.15;;;13.43;;
58071;SDS011;60383;46.626;18.866;2024-01-10T09:41:13;18.20;;;12.32;;
58071;SDS011;60383;46.626;18.866;2024-01-10T09:43:40;21.15;;;13.15;;
58071;SDS011;60383;46.626;18.866;2024-01-10T09:46:06;19.42;;;12.75;;
58071;SDS011;60383;46.626;18.866;2024-01-10T09:48:32;18.48;;;12.75;;
58071;SDS011;60383;46.626;18.866;2024-01-10T09:50:58;21.90;;;13.48;;
58071;SDS011;60383;46.626;18.866;2024-01-10T09:53:26;21.35;;;13.18;;
58071;SDS011;60383;46.626;18.866;2024-01-10T09:55:53;19.33;;;12.57;;
58071;SDS011;60383;46.626;18.866;2024-01-10T09:58:24;19.17;;;12.93;;
58071;SDS011;60383;46.626;18.866;2024-01-10T10:00:51;18.63;;;11.73;;
58071;SDS011;60383;46.626;18.866;2024-01-10T10:03:17;19.85;;;12.50;;
58071;SDS011;60383;46.626;18.866;2024-01-10T10:05:43;21.73;;;13.13;;
58071;SDS011;60383;46.626;18.866;2024-01-10T10:08:12;19.45;;;12.40;;
58071;SDS011;60383;46.626;18.866;2024-01-10T10:10:50;17.83;;;11.70;;
58071;SDS011;60383;46.626;18.866;2024-01-10T10:13:26;20.00;;;12.63;;
58071;SDS011;60383;46.626;18.866;2024-01-10T10:15:59;19.83;;;12.10;;
58071;SDS011;60383;46.626;18.866;2024-01-10T10:18:26;20.25;;;12.65;;
58071;SDS011;60383;46.626;18.866;2024-01-10T10:21:06;21.13;;;12.73;;
58071;SDS011;60383;46.626;18.866;2024-01-10T10:23:31;20.85;;;13.75;;
58071;SDS011;60383;46.626;18.866;2024-01-10T10:25:56;21.10;;;12.48;;
58071;SDS011;60383;46.626;18.866;2024-01-10T10:28:27;26.80;;;13.80;;
58071;SDS011;60383;46.626;18.866;2024-01-10T10:30:54;22.27;;;13.43;;
58071;SDS011;60383;46.626;18.866;2024-01-10T10:33:20;19.52;;;13.20;;
58071;SDS011;60383;46.626;18.866;2024-01-10T10:35:46;20.42;;;12.80;;
58071;SDS011;60383;46.626;18.866;2024-01-10T10:38:11;20.63;;;13.73;;
58071;SDS011;60383;46.626;18.866;2024-01-10T10:40:37;22.77;;;14.27;;
58071;SDS011;60383;46.626;18.866;2024-01-10T10:43:03;21.88;;;13.13;;
58071;SDS011;60383;46.626;18.866;2024-01-10T10:45:29;22.08;;;14.23;;
58071;SDS011;60383;46.626;18.866;2024-01-10T10:47:59;19.98;;;13.30;;
58071;SDS011;60383;46.626;18.866;2024-01-10T10:50:28;20.75;;;13.52;;
58071;SDS011;60383;46.626;18.866;2024-01-10T10:52:57;20.17;;;13.18;;
58071;SDS011;60383;46.626;18.866;2024-01-10T10:55:25;24.02;;;13.77;;
58071;SDS011;60383;46.626;18.866;2024-01-10T10:57:52;23.02;;;13.82;;
58071;SDS011;60383;46.626;18.866;2024-01-10T11:00:19;23.60;;;15.20;;
58071;SDS011;60383;46.626;18.866;2024-01-10T11:02:47;24.92;;;14.98;;
58071;SDS011;60383;46.626;18.866;2024-01-10T11:05:12;25.50;;;15.00;;
58071;SDS011;60383;46.626;18.866;2024-01-10T11:07:39;24.25;;;14.57;;
58071;SDS011;60383;46.626;18.866;2024-01-10T11:10:08;23.85;;;14.85;;
58071;SDS011;60383;46.626;18.866;2024-01-10T11:12:42;24.13;;;15.05;;
58071;SDS011;60383;46.626;18.866;2024-01-10T11:18:12;24.55;;;15.27;;
58071;SDS011;60383;46.626;18.866;2024-01-10T11:23:40;25.77;;;15.38;;
58071;SDS011;60383;46.626;18.866;2024-01-10T11:26:09;25.75;;;16.40;;
58071;SDS011;60383;46.626;18.866;2024-01-10T11:28:38;23.65;;;14.85;;
58071;SDS011;60383;46.626;18.866;2024-01-10T11:31:08;23.33;;;15.43;;
58071;SDS011;60383;46.626;18.866;2024-01-10T11:33:38;24.80;;;14.20;;
58071;SDS011;60383;46.626;18.866;2024-01-10T11:38:39;25.30;;;14.82;;
58071;SDS011;60383;46.626;18.866;2024-01-10T11:41:19;26.92;;;14.90;;
58071;SDS011;60383;46.626;18.866;2024-01-10T11:46:39;22.40;;;12.40;;
58071;SDS011;60383;46.626;18.866;2024-01-10T11:49:09;18.05;;;11.63;;
58071;SDS011;60383;46.626;18.866;2024-01-10T11:51:36;20.58;;;12.63;;
58071;SDS011;60383;46.626;18.866;2024-01-10T11:54:02;22.50;;;13.65;;
58071;SDS011;60383;46.626;18.866;2024-01-10T11:59:10;22.67;;;13.05;;
58071;SDS011;60383;46.626;18.866;2024-01-10T12:01:37;22.90;;;12.88;;
58071;SDS011;60383;46.626;18.866;2024-01-10T12:04:03;21.60;;;13.77;;
58071;SDS011;60383;46.626;18.866;2024-01-10T12:06:30;19.90;;;12.32;;
58071;SDS011;60383;46.626;18.866;2024-01-10T12:08:56;19.75;;;12.27;;
58071;SDS011;60383;46.626;18.866;2024-01-10T12:11:22;20.65;;;13.13;;
58071;SDS011;60383;46.626;18.866;2024-01-10T12:13:48;21.90;;;12.95;;
58071;SDS011;60383;46.626;18.866;2024-01-10T12:16:14;17.75;;;11.07;;
58071;SDS011;60383;46.626;18.866;2024-01-10T12:18:43;21.52;;;12.88;;
58071;SDS011;60383;46.626;18.866;2024-01-10T12:21:08;21.58;;;13.25;;
58071;SDS011;60383;46.626;18.866;2024-01-10T12:23:35;22.58;;;13.13;;
58071;SDS011;60383;46.626;18.866;2024-01-10T12:26:02;24.55;;;14.57;;
58071;SDS011;60383;46.626;18.866;2024-01-10T12:28:30;23.35;;;14.32;;
58071;SDS011;60383;46.626;18.866;2024-01-10T12:30:55;23.83;;;13.32;;
58071;SDS011;60383;46.626;18.866;2024-01-10T12:33:22;22.45;;;14.40;;
58071;SDS011;60383;46.626;18.866;2024-01-10T12:36:02;21.23;;;12.68;;
58071;SDS011;60383;46.626;18.866;2024-01-10T12:38:36;23.15;;;13.48;;
58071;SDS011;60383;46.626;18.866;2024-01-10T12:41:03;27.08;;;13.27;;
58071;SDS011;60383;46.626;18.866;2024-01-10T12:43:29;18.60;;;13.05;;
58071;SDS011;60383;46.626;18.866;2024-01-10T12:46:02;20.10;;;12.77;;
58071;SDS011;60383;46.626;18.866;2024-01-10T12:48:40;22.33;;;13.48;;
58071;SDS011;60383;46.626;18.866;2024-01-10T12:51:10;25.55;;;14.70;;
58071;SDS011;60383;46.626;18.866;2024-01-10T12:53:37;24.60;;;13.38;;
58071;SDS011;60383;46.626;18.866;2024-01-10T12:56:06;21.35;;;12.65;;
58071;SDS011;60383;46.626;18.866;2024-01-10T12:58:33;20.98;;;12.88;;
58071;SDS011;60383;46.626;18.866;2024-01-10T13:01:00;20.48;;;13.35;;
58071;SDS011;60383;46.626;18.866;2024-01-10T13:03:26;19.15;;;12.32;;
58071;SDS011;60383;46.626;18.866;2024-01-10T13:05:52;22.02;;;12.13;;
58071;SDS011;60383;46.626;18.866;2024-01-10T13:08:18;19.77;;;11.00;;
58071;SDS011;60383;46.626;18.866;2024-01-10T13:10:44;23.40;;;13.38;;
58071;SDS011;60383;46.626;18.866;2024-01-10T13:13:10;21.38;;;12.57;;
58071;SDS011;60383;46.626;18.866;2024-01-10T13:15:37;20.90;;;11.52;;
58071;SDS011;60383;46.626;18.866;2024-01-10T13:18:03;20.35;;;12.57;;
58071;SDS011;60383;46.626;18.866;2024-01-10T13:20:28;19.33;;;11.85;;
58071;SDS011;60383;46.626;18.866;2024-01-10T13:22:54;18.67;;;11.93;;
58071;SDS011;60383;46.626;18.866;2024-01-10T13:25:19;20.23;;;12.38;;
58071;SDS011;60383;46.626;18.866;2024-01-10T13:27:51;19.90;;;11.82;;
58071;SDS011;60383;46.626;18.866;2024-01-10T13:30:17;22.55;;;10.88;;
58071;SDS011;60383;46.626;18.866;2024-01-10T13:32:43;19.63;;;11.93;;
58071;SDS011;60383;46.626;18.866;2024-01-10T13:35:09;20.65;;;13.63;;
58071;SDS011;60383;46.626;18.866;2024-01-10T13:37:34;24.02;;;14.57;;
58071;SDS011;60383;46.626;18.866;2024-01-10T13:40:00;19.58;;;12.43;;
58071;SDS011;60383;46.626;18.866;2024-01-10T13:42:30;22.90;;;11.98;;
58071;SDS011;60383;46.626;18.866;2024-01-10T13:44:56;21.63;;;12.00;;
58071;SDS011;60383;46.626;18.866;2024-01-10T13:47:21;22.40;;;12.73;;
58071;SDS011;60383;46.626;18.866;2024-01-10T13:49:47;20.98;;;13.35;;
58071;SDS011;60383;46.626;18.866;2024-01-10T13:52:12;22.42;;;13.13;;
58071;SDS011;60383;46.626;18.866;2024-01-10T13:54:38;23.95;;;14.05;;
58071;SDS011;60383;46.626;18.866;2024-01-10T13:57:03;22.95;;;13.20;;
58071;SDS011;60383;46.626;18.866;2024-01-10T13:59:29;24.10;;;14.65;;
58071;SDS011;60383;46.626;18.866;2024-01-10T14:01:55;22.42;;;14.48;;
58071;SDS011;60383;46.626;18.866;2024-01-10T14:04:20;25.42;;;14.45;;
58071;SDS011;60383;46.626;18.866;2024-01-10T14:06:47;24.15;;;13.88;;
58071;SDS011;60383;46.626;18.866;2024-01-10T14:09:13;28.05;;;15.57;;
58071;SDS011;60383;46.626;18.866;2024-01-10T14:11:39;23.90;;;14.05;;
58071;SDS011;60383;46.626;18.866;2024-01-10T14:14:05;26.00;;;14.57;;
58071;SDS011;60383;46.626;18.866;2024-01-10T14:16:30;23.77;;;13.40;;
58071;SDS011;60383;46.626;18.866;2024-01-10T14:18:55;26.02;;;14.68;;